Time;durP1;ratioP1;P1;durP2;ratioP2;P2;SDS_P1;SDS_P2;PMS_P1;PMS_P2;Temp;Humidity;BMP_temperature;BMP_pressure;BME280_temperature;BME280_humidity;BME280_pressure;Samples;Min_cycle;Max_cycle;Signal;HPM_P1;HPM_P2
2022/04/20 00:00:30;;;;;;;;;;;6.10;99.90;;;;;;5114339;27;19911;-72
2022/04/20 00:02:56;;;;;;;;;;;6.10;99.90;;;;;;5132531;27;20009;-73
2022/04/20 00:05:21;;;;;;;;;;;6.10;99.90;;;;;;5132796;27;19963;-73
2022/04/20 00:07:47;;;;;;;;;;;6.00;99.90;;;;;;5132194;27;19925;-73
2022/04/20 00:10:13;;;;;;;;;;;6.10;99.90;;;;;;5132607;27;19970;-73
2022/04/20 00:12:38;;;;;;;;;;;5.90;99.90;;;;;;5113725;27;19915;-72
2022/04/20 00:15:04;;;;;;;;;;;6.00;99.90;;;;;;5132110;27;20357;-72
2022/04/20 00:17:30;;;;;;;;;;;6.00;99.90;;;;;;5113643;27;19908;-72
2022/04/20 00:19:55;;;;;;;;;;;6.00;99.90;;;;;;5114014;28;20279;-72
2022/04/20 00:22:21;;;;;;;;;;;5.90;99.90;;;;;;5132222;28;19908;-73
2022/04/20 00:24:46;;;;;;;;;;;5.90;99.90;;;;;;5132263;28;19915;-73
2022/04/20 00:27:12;;;;;;;;;;;5.90;99.90;;;;;;5132469;28;19908;-73
2022/04/20 00:29:37;;;;;;;;;;;5.90;99.90;;;;;;5132576;28;19964;-73
2022/04/20 00:32:03;;;;;;;;;;;5.90;99.90;;;;;;5132079;28;19911;-73
2022/04/20 00:34:28;;;;;;;;;;;6.00;99.90;;;;;;5132246;28;19933;-73
2022/04/20 00:36:55;;;;;;;;;;;6.00;99.90;;;;;;5132098;28;19908;-73
2022/04/20 00:39:21;;;;;;;;;;;6.00;99.90;;;;;;5113707;28;19977;-72
2022/04/20 00:41:46;;;;;;;;;;;6.00;99.90;;;;;;5132072;28;19938;-72
2022/04/20 00:44:12;;;;;;;;;;;5.90;99.90;;;;;;5113716;28;19907;-72
2022/04/20 00:46:38;;;;;;;;;;;5.90;99.90;;;;;;5113458;28;19919;-72
2022/04/20 00:49:05;;;;;;;;;;;6.00;99.90;;;;;;5132139;28;19907;-73
2022/04/20 00:51:31;;;;;;;;;;;6.00;99.90;;;;;;5131984;28;19909;-72
2022/04/20 00:54:00;;;;;;;;;;;6.00;99.90;;;;;;5132004;28;19907;-73
2022/04/20 00:56:28;;;;;;;;;;;6.00;99.90;;;;;;5113321;28;19916;-72
2022/04/20 00:58:55;;;;;;;;;;;6.10;99.90;;;;;;5131836;28;19914;-73
2022/04/20 01:01:21;;;;;;;;;;;6.00;99.90;;;;;;5113319;28;19918;-73
2022/04/20 01:03:46;;;;;;;;;;;6.00;99.90;;;;;;5131871;28;20069;-72
2022/04/20 01:06:12;;;;;;;;;;;6.00;99.90;;;;;;5132269;28;19916;-73
2022/04/20 01:08:37;;;;;;;;;;;6.00;99.90;;;;;;5113098;28;19915;-73
2022/04/20 01:11:03;;;;;;;;;;;6.00;99.90;;;;;;5132177;28;19923;-72
2022/04/20 01:13:29;;;;;;;;;;;6.00;99.90;;;;;;5131749;28;19918;-72
2022/04/20 01:15:55;;;;;;;;;;;6.00;99.90;;;;;;5113303;28;19919;-73
2022/04/20 01:18:20;;;;;;;;;;;6.00;99.90;;;;;;5113195;28;19930;-73
2022/04/20 01:20:46;;;;;;;;;;;6.00;99.90;;;;;;5131684;28;19934;-72
2022/04/20 01:23:11;;;;;;;;;;;6.00;99.90;;;;;;5131815;28;19911;-72
2022/04/20 01:25:37;;;;;;;;;;;6.00;99.90;;;;;;5132109;27;19950;-73
2022/04/20 01:28:04;;;;;;;;;;;6.00;99.90;;;;;;5134849;27;19922;-73
2022/04/20 01:30:30;;;;;;;;;;;5.90;99.90;;;;;;5135942;27;19927;-71
2022/04/20 01:32:56;;;;;;;;;;;6.00;99.90;;;;;;5135399;27;19934;-71
2022/04/20 01:35:22;;;;;;;;;;;5.90;99.90;;;;;;5116905;27;20304;-72
2022/04/20 01:37:47;;;;;;;;;;;5.90;99.90;;;;;;5116726;27;19911;-72
2022/04/20 01:40:13;;;;;;;;;;;5.90;99.90;;;;;;5135514;27;19923;-72
2022/04/20 01:42:38;;;;;;;;;;;5.90;99.90;;;;;;5116672;27;19915;-73
2022/04/20 01:45:04;;;;;;;;;;;5.90;99.90;;;;;;5135280;27;19912;-73
2022/04/20 01:47:30;;;;;;;;;;;5.90;99.90;;;;;;5116472;27;20003;-72
2022/04/20 01:49:55;;;;;;;;;;;5.90;99.90;;;;;;5116730;27;19911;-73
2022/04/20 01:52:21;;;;;;;;;;;5.90;99.90;;;;;;5135043;27;19915;-72
2022/04/20 01:54:46;;;;;;;;;;;5.90;99.90;;;;;;5135044;27;20452;-73
2022/04/20 01:57:11;;;;;;;;;;;6.00;99.90;;;;;;5134986;27;20366;-73
2022/04/20 01:59:37;;;;;;;;;;;6.00;99.90;;;;;;5135251;27;19934;-72
2022/04/20 02:04:47;;;;;;;;;;;6.00;99.90;;;;;;5134971;27;19917;-72
2022/04/20 02:07:12;;;;;;;;;;;6.00;99.90;;;;;;5134547;27;19920;-73
2022/04/20 02:09:37;;;;;;;;;;;6.00;99.90;;;;;;5134472;27;20420;-73
2022/04/20 02:12:03;;;;;;;;;;;5.90;99.90;;;;;;5134537;27;19915;-73
2022/04/20 02:14:29;;;;;;;;;;;5.90;99.90;;;;;;5134487;27;19916;-73
2022/04/20 02:16:54;;;;;;;;;;;5.90;99.90;;;;;;5134557;27;20283;-72
2022/04/20 02:19:19;;;;;;;;;;;5.90;99.90;;;;;;5134265;27;20231;-72
2022/04/20 02:21:45;;;;;;;;;;;5.90;99.90;;;;;;5134620;27;19907;-72
2022/04/20 02:24:11;;;;;;;;;;;5.90;99.90;;;;;;5134380;27;19916;-73
2022/04/20 02:26:36;;;;;;;;;;;5.90;99.90;;;;;;5134506;27;19907;-72
2022/04/20 02:29:02;;;;;;;;;;;5.90;99.90;;;;;;5134154;27;19907;-72
2022/04/20 02:31:27;;;;;;;;;;;5.90;99.90;;;;;;5134078;27;20310;-73
2022/04/20 02:33:53;;;;;;;;;;;5.80;99.90;;;;;;5115501;27;20007;-73
2022/04/20 02:36:18;;;;;;;;;;;5.80;99.90;;;;;;5134060;27;20390;-72
2022/04/20 02:38:44;;;;;;;;;;;5.80;99.90;;;;;;5133550;27;19914;-72
2022/04/20 02:41:10;;;;;;;;;;;5.80;99.90;;;;;;5134548;27;20018;-73
2022/04/20 02:43:35;;;;;;;;;;;5.90;99.90;;;;;;5115550;27;19915;-73
2022/04/20 02:46:01;;;;;;;;;;;5.80;99.90;;;;;;5134574;27;19916;-73
2022/04/20 02:48:27;;;;;;;;;;;5.80;99.90;;;;;;5133931;27;19911;-72
2022/04/20 02:50:52;;;;;;;;;;;5.80;99.90;;;;;;5134442;27;19988;-72
2022/04/20 02:53:17;;;;;;;;;;;5.90;99.90;;;;;;5115309;27;19908;-72
2022/04/20 02:55:43;;;;;;;;;;;5.80;99.90;;;;;;5115423;27;19930;-72
2022/04/20 02:58:09;;;;;;;;;;;5.80;99.90;;;;;;5133632;27;19908;-73
2022/04/20 03:00:34;;;;;;;;;;;5.80;99.90;;;;;;5133938;27;20264;-73
2022/04/20 03:03:00;;;;;;;;;;;5.80;99.90;;;;;;5133474;27;19908;-73
2022/04/20 03:05:25;;;;;;;;;;;5.80;99.90;;;;;;5133827;27;19922;-73
2022/04/20 03:07:51;;;;;;;;;;;5.80;99.90;;;;;;5133782;27;19911;-73
2022/04/20 03:10:17;;;;;;;;;;;5.80;99.90;;;;;;5115001;27;19924;-73
2022/04/20 03:12:42;;;;;;;;;;;5.80;99.90;;;;;;5133488;27;19954;-73
2022/04/20 03:15:08;;;;;;;;;;;5.80;99.90;;;;;;5114761;27;19927;-72
2022/04/20 03:17:34;;;;;;;;;;;5.90;99.90;;;;;;5133461;27;19908;-73
2022/04/20 03:19:59;;;;;;;;;;;5.80;99.90;;;;;;5133343;27;19916;-73
2022/04/20 03:22:25;;;;;;;;;;;5.90;99.90;;;;;;5114676;27;19911;-73
2022/04/20 03:24:50;;;;;;;;;;;5.90;99.90;;;;;;5133241;27;19916;-73
2022/04/20 03:27:16;;;;;;;;;;;5.90;99.90;;;;;;5133108;27;19962;-72
2022/04/20 03:29:41;;;;;;;;;;;5.90;99.90;;;;;;5114626;27;19968;-73
2022/04/20 03:32:11;;;;;;;;;;;5.90;99.90;;;;;;5114626;27;19914;-72
2022/04/20 03:34:36;;;;;;;;;;;5.90;99.90;;;;;;5133069;27;19927;-72
2022/04/20 03:37:04;;;;;;;;;;;5.90;99.90;;;;;;5132883;27;20293;-73
2022/04/20 03:39:29;;;;;;;;;;;5.90;99.90;;;;;;5114226;27;19915;-73
2022/04/20 03:41:55;;;;;;;;;;;5.90;99.90;;;;;;5114450;27;20366;-72
2022/04/20 03:44:20;;;;;;;;;;;5.90;99.90;;;;;;5132614;27;20252;-72
2022/04/20 03:46:46;;;;;;;;;;;5.90;99.90;;;;;;5132826;27;20312;-74
2022/04/20 03:49:11;;;;;;;;;;;5.90;99.90;;;;;;5131994;27;19931;-72
2022/04/20 03:51:37;;;;;;;;;;;5.90;99.90;;;;;;5114154;27;19951;-73
2022/04/20 03:54:02;;;;;;;;;;;5.90;99.90;;;;;;5132668;27;20014;-73
2022/04/20 03:57:03;;;;;;;;;;;5.90;99.90;;;;;;5132487;27;19915;-72
2022/04/20 03:59:13;;;;;;;;;;;5.90;99.90;;;;;;5132346;27;20082;-72
2022/04/20 04:01:39;;;;;;;;;;;6.00;99.90;;;;;;5132437;27;19952;-71
2022/04/20 04:04:05;;;;;;;;;;;6.00;99.90;;;;;;5132460;27;19907;-74
2022/04/20 04:06:30;;;;;;;;;;;6.00;99.90;;;;;;5132876;27;19908;-74
2022/04/20 04:08:56;;;;;;;;;;;6.00;99.90;;;;;;5132556;27;20006;-73
2022/04/20 04:11:21;;;;;;;;;;;6.80;99.90;;;;;;5132674;27;19911;-73
2022/04/20 04:13:47;;;;;;;;;;;6.10;99.90;;;;;;5132479;27;19907;-73
2022/04/20 04:16:12;;;;;;;;;;;6.10;99.90;;;;;;5132705;27;19927;-72
2022/04/20 04:18:38;;;;;;;;;;;6.10;99.90;;;;;;5132356;27;19915;-73
2022/04/20 04:21:03;;;;;;;;;;;6.10;99.90;;;;;;5132668;27;19919;-74
2022/04/20 04:23:29;;;;;;;;;;;6.20;99.90;;;;;;5113896;28;19964;-74
2022/04/20 04:25:54;;;;;;;;;;;6.20;99.90;;;;;;5113967;28;20235;-72
2022/04/20 04:28:20;;;;;;;;;;;6.20;99.90;;;;;;5132068;28;19915;-72
2022/04/20 04:30:45;;;;;;;;;;;6.20;99.90;;;;;;5132575;28;19998;-73
2022/04/20 04:33:11;;;;;;;;;;;6.30;99.90;;;;;;5132080;28;19955;-73
2022/04/20 04:35:36;;;;;;;;;;;6.30;99.90;;;;;;5132416;28;20010;-73
2022/04/20 04:38:02;;;;;;;;;;;6.30;99.90;;;;;;5113574;28;19912;-72
2022/04/20 04:40:27;;;;;;;;;;;6.30;99.90;;;;;;5132352;28;20319;-73
2022/04/20 04:42:53;;;;;;;;;;;6.30;99.90;;;;;;5132237;28;19963;-73
2022/04/20 04:50:51;;;;;;;;;;;6.40;99.90;;;;;;5132412;28;19958;-73
2022/04/20 04:53:17;;;;;;;;;;;6.40;99.90;;;;;;5132109;28;20278;-73
2022/04/20 04:55:43;;;;;;;;;;;6.40;99.90;;;;;;5132296;28;19922;-74
2022/04/20 04:58:08;;;;;;;;;;;6.50;99.90;;;;;;5132019;28;19916;-73
2022/04/20 05:00:34;;;;;;;;;;;6.50;99.90;;;;;;5133268;27;19911;-72
2022/04/20 05:02:59;;;;;;;;;;;6.60;99.90;;;;;;5135941;27;20192;-71
2022/04/20 05:05:24;;;;;;;;;;;7.80;99.90;;;;;;5136349;27;19918;-73
2022/04/20 05:07:54;;;;;;;;;;;6.70;99.90;;;;;;5136007;27;19918;-72
2022/04/20 05:10:23;;;;;;;;;;;6.70;99.90;;;;;;5135705;27;19928;-73
2022/04/20 05:12:48;;;;;;;;;;;6.70;99.90;;;;;;5135763;27;20322;-73
2022/04/20 05:15:14;;;;;;;;;;;6.80;99.90;;;;;;5135916;27;19919;-73
2022/04/20 05:17:39;;;;;;;;;;;6.80;99.90;;;;;;5135758;27;20006;-73
2022/04/20 05:20:05;;;;;;;;;;;6.80;99.90;;;;;;5135804;27;20003;-73
2022/04/20 05:22:31;;;;;;;;;;;6.80;99.90;;;;;;5135344;27;20371;-71
2022/04/20 05:24:56;;;;;;;;;;;6.90;99.90;;;;;;5135933;27;19916;-72
2022/04/20 05:27:22;;;;;;;;;;;6.80;99.90;;;;;;5135481;27;19912;-72
2022/04/20 05:29:47;;;;;;;;;;;6.80;99.90;;;;;;5135606;27;19916;-71
2022/04/20 05:32:13;;;;;;;;;;;6.90;99.90;;;;;;5135342;27;19957;-72
2022/04/20 05:34:39;;;;;;;;;;;7.00;99.90;;;;;;5135379;27;19923;-72
2022/04/20 05:42:33;;;;;;;;;;;7.00;99.90;;;;;;5135105;27;19922;-72
2022/04/20 05:44:58;;;;;;;;;;;7.00;99.90;;;;;;5135580;27;20002;-73
2022/04/20 05:47:24;;;;;;;;;;;7.00;99.90;;;;;;5116563;27;19911;-73
2022/04/20 05:49:49;;;;;;;;;;;6.90;99.90;;;;;;5135209;27;20318;-72
2022/04/20 05:52:15;;;;;;;;;;;7.00;99.90;;;;;;5134880;27;19912;-72
2022/04/20 05:54:40;;;;;;;;;;;7.10;99.90;;;;;;5134996;27;19919;-73
2022/04/20 05:57:06;;;;;;;;;;;7.00;99.90;;;;;;5134954;27;19908;-72
2022/04/20 05:59:31;;;;;;;;;;;7.00;99.90;;;;;;5135151;27;19915;-73
2022/04/20 06:01:57;;;;;;;;;;;6.90;99.90;;;;;;5116191;27;19908;-73
2022/04/20 06:04:23;;;;;;;;;;;7.00;99.90;;;;;;5135024;27;19915;-73
2022/04/20 06:06:49;;;;;;;;;;;7.10;99.90;;;;;;5134941;27;19907;-74
2022/04/20 06:09:15;;;;;;;;;;;7.50;99.90;;;;;;5134882;27;19927;-72
2022/04/20 06:11:41;;;;;;;;;;;7.20;99.90;;;;;;5134219;27;19908;-73
2022/04/20 06:14:07;;;;;;;;;;;7.30;99.90;;;;;;5134426;27;20282;-73
2022/04/20 06:16:32;;;;;;;;;;;7.40;99.90;;;;;;5115875;27;19912;-73
2022/04/20 06:18:58;;;;;;;;;;;7.40;99.90;;;;;;5134516;27;19914;-73
2022/04/20 06:21:23;;;;;;;;;;;7.40;99.90;;;;;;5134454;27;20654;-73
2022/04/20 06:23:49;;;;;;;;;;;7.40;99.90;;;;;;5134674;27;19907;-73
2022/04/20 06:26:14;;;;;;;;;;;7.40;99.90;;;;;;5134649;27;20359;-73
2022/04/20 06:28:40;;;;;;;;;;;7.50;99.90;;;;;;5134305;27;19908;-73
2022/04/20 06:31:05;;;;;;;;;;;7.50;99.90;;;;;;5134854;27;20385;-73
2022/04/20 06:33:31;;;;;;;;;;;7.60;99.90;;;;;;5134319;27;20321;-73
2022/04/20 06:35:59;;;;;;;;;;;7.50;99.90;;;;;;5134074;27;19919;-73
2022/04/20 06:38:25;;;;;;;;;;;7.50;99.90;;;;;;5134146;27;19908;-73
2022/04/20 06:40:52;;;;;;;;;;;7.60;99.90;;;;;;5134510;27;20311;-73
2022/04/20 06:43:18;;;;;;;;;;;7.60;99.90;;;;;;5133957;27;19908;-73
2022/04/20 06:45:44;;;;;;;;;;;7.70;99.90;;;;;;5134278;27;19920;-73
2022/04/20 06:48:10;;;;;;;;;;;7.80;99.90;;;;;;5115322;27;19907;-73
2022/04/20 06:50:36;;;;;;;;;;;7.60;99.90;;;;;;5134155;27;20348;-73
2022/04/20 06:58:38;;;;;;;;;;;7.80;99.90;;;;;;5133660;27;20385;-73
2022/04/20 07:01:04;;;;;;;;;;;7.80;99.90;;;;;;5134050;27;19920;-73
2022/04/20 07:03:31;;;;;;;;;;;7.90;99.90;;;;;;5133464;27;19986;-73
2022/04/20 07:05:57;;;;;;;;;;;7.80;99.90;;;;;;5115292;27;19972;-73
2022/04/20 07:08:22;;;;;;;;;;;7.90;99.90;;;;;;5133393;27;20371;-73
2022/04/20 07:10:48;;;;;;;;;;;8.00;99.90;;;;;;5133643;27;20019;-74
2022/04/20 07:13:14;;;;;;;;;;;8.10;99.90;;;;;;5133155;27;20104;-74
2022/04/20 07:15:40;;;;;;;;;;;8.00;99.90;;;;;;5133384;27;20018;-74
2022/04/20 07:18:05;;;;;;;;;;;8.10;99.90;;;;;;5133081;27;19907;-73
2022/04/20 07:20:31;;;;;;;;;;;8.00;99.90;;;;;;5133156;27;19915;-73
2022/04/20 07:22:56;;;;;;;;;;;8.00;99.90;;;;;;5132962;27;20378;-72
2022/04/20 07:25:22;;;;;;;;;;;8.00;99.90;;;;;;5132446;27;19964;-72
2022/04/20 07:27:48;;;;;;;;;;;7.90;99.90;;;;;;5133169;27;20370;-72
2022/04/20 07:30:14;;;;;;;;;;;8.00;99.90;;;;;;5133307;27;19921;-72
2022/04/20 07:32:40;;;;;;;;;;;7.90;99.90;;;;;;5132729;27;20286;-73
2022/04/20 07:35:05;;;;;;;;;;;7.90;99.90;;;;;;5132821;27;19919;-73
2022/04/20 07:37:31;;;;;;;;;;;8.00;99.90;;;;;;5132754;27;19908;-73
2022/04/20 07:39:57;;;;;;;;;;;7.90;99.90;;;;;;5133025;27;19919;-73
2022/04/20 07:42:22;;;;;;;;;;;7.90;99.90;;;;;;5132596;27;19972;-73
2022/04/20 07:44:48;;;;;;;;;;;7.90;99.90;;;;;;5133008;27;19915;-73
2022/04/20 07:47:13;;;;;;;;;;;8.00;99.90;;;;;;5114238;27;19915;-73
2022/04/20 07:52:23;;;;;;;;;;;8.10;99.90;;;;;;5133028;27;19915;-74
2022/04/20 07:54:48;;;;;;;;;;;8.20;99.90;;;;;;5132545;27;20018;-73
2022/04/20 07:57:15;;;;;;;;;;;8.20;99.90;;;;;;5114533;27;19919;-73
2022/04/20 07:59:41;;;;;;;;;;;8.10;99.90;;;;;;5114085;27;19915;-73
2022/04/20 08:02:07;;;;;;;;;;;8.10;99.90;;;;;;5132558;27;19915;-73
2022/04/20 08:04:32;;;;;;;;;;;8.10;99.90;;;;;;5113748;27;19916;-73
2022/04/20 08:06:58;;;;;;;;;;;8.20;99.90;;;;;;5132441;27;19936;-74
2022/04/20 08:09:23;;;;;;;;;;;8.30;99.90;;;;;;5132192;27;19928;-73
2022/04/20 08:11:49;;;;;;;;;;;8.30;99.90;;;;;;5132375;27;20381;-73
2022/04/20 08:14:15;;;;;;;;;;;8.30;99.90;;;;;;5132578;27;19920;-74
2022/04/20 08:16:42;;;;;;;;;;;8.30;99.90;;;;;;5113601;27;19973;-73
2022/04/20 08:19:08;;;;;;;;;;;8.40;99.90;;;;;;5132164;28;19907;-73
2022/04/20 08:21:34;;;;;;;;;;;8.40;99.90;;;;;;5132445;27;20435;-74
2022/04/20 08:23:59;;;;;;;;;;;8.40;99.90;;;;;;5132147;28;19914;-73
2022/04/20 08:26:25;;;;;;;;;;;8.40;99.90;;;;;;5132047;28;19907;-73
2022/04/20 08:28:50;;;;;;;;;;;8.50;99.90;;;;;;5132098;28;19911;-73
2022/04/20 08:31:16;;;;;;;;;;;8.60;99.90;;;;;;5132587;28;19916;-73
2022/04/20 08:33:42;;;;;;;;;;;8.70;99.90;;;;;;5131844;28;19960;-74
2022/04/20 08:36:07;;;;;;;;;;;8.70;99.90;;;;;;5115843;27;20279;-73
2022/04/20 08:38:33;;;;;;;;;;;8.80;99.90;;;;;;5136239;27;20412;-73
2022/04/20 08:40:59;;;;;;;;;;;8.80;99.90;;;;;;5136780;27;20321;-73
2022/04/20 08:43:26;;;;;;;;;;;8.80;99.90;;;;;;5117715;27;19908;-74
2022/04/20 08:45:52;;;;;;;;;;;8.80;99.90;;;;;;5136712;27;19960;-74
2022/04/20 08:48:18;;;;;;;;;;;8.80;99.90;;;;;;5136154;27;19907;-73
2022/04/20 08:50:44;;;;;;;;;;;8.80;99.90;;;;;;5136530;27;19926;-73
2022/04/20 08:53:10;;;;;;;;;;;8.90;99.90;;;;;;5117580;27;19912;-73
2022/04/20 08:55:35;;;;;;;;;;;8.90;99.90;;;;;;5136283;27;20347;-74
2022/04/20 08:58:02;;;;;;;;;;;9.20;99.90;;;;;;5135876;27;19943;-73
2022/04/20 09:00:27;;;;;;;;;;;9.30;99.90;;;;;;5136186;27;19994;-74
2022/04/20 09:02:55;;;;;;;;;;;9.30;99.90;;;;;;5135886;27;19973;-73
2022/04/20 09:05:21;;;;;;;;;;;9.40;99.90;;;;;;5136293;27;19915;-73
2022/04/20 09:07:46;;;;;;;;;;;9.40;99.90;;;;;;5135738;27;20010;-73
2022/04/20 09:10:12;;;;;;;;;;;9.30;99.90;;;;;;5135804;27;20323;-73
2022/04/20 09:12:42;;;;;;;;;;;9.40;99.90;;;;;;5135647;27;19913;-74
2022/04/20 09:15:09;;;;;;;;;;;9.40;99.90;;;;;;5135599;27;19919;-73
2022/04/20 09:17:45;;;;;;;;;;;9.40;99.90;;;;;;5135592;27;20316;-73
2022/04/20 09:20:17;;;;;;;;;;;9.40;99.90;;;;;;5135773;27;19998;-74
2022/04/20 09:22:57;;;;;;;;;;;9.40;99.90;;;;;;5117068;27;20258;-74
2022/04/20 09:25:28;;;;;;;;;;;9.50;99.90;;;;;;5135885;27;20415;-73
2022/04/20 09:27:54;;;;;;;;;;;9.60;99.90;;;;;;5135430;27;19974;-74
2022/04/20 09:30:19;;;;;;;;;;;9.60;99.90;;;;;;5116884;27;20375;-73
2022/04/20 09:32:46;;;;;;;;;;;9.70;99.90;;;;;;5135607;27;19912;-73
2022/04/20 09:35:13;;;;;;;;;;;9.60;99.90;;;;;;5135405;27;20002;-73
2022/04/20 09:37:40;;;;;;;;;;;9.70;99.90;;;;;;5135337;27;19912;-74
2022/04/20 09:40:11;;;;;;;;;;;9.70;99.90;;;;;;5135069;27;19927;-73
2022/04/20 09:42:36;;;;;;;;;;;9.90;99.90;;;;;;5135383;27;19914;-73
2022/04/20 09:45:04;;;;;;;;;;;9.90;99.90;;;;;;5135165;27;20271;-74
2022/04/20 09:50:22;;;;;;;;;;;9.80;99.90;;;;;;5135626;27;19922;-74
2022/04/20 09:52:48;;;;;;;;;;;9.80;99.90;;;;;;5134951;27;19953;-73
2022/04/20 09:55:33;;;;;;;;;;;10.20;99.90;;;;;;5135079;27;19930;-73
2022/04/20 09:58:12;;;;;;;;;;;9.80;99.90;;;;;;5134787;27;19953;-73
2022/04/20 10:00:41;;;;;;;;;;;9.60;99.90;;;;;;5134664;27;20287;-73
2022/04/20 10:03:07;;;;;;;;;;;9.60;99.90;;;;;;5134775;27;19914;-73
2022/04/20 10:05:33;;;;;;;;;;;9.70;99.90;;;;;;5135088;27;19998;-73
2022/04/20 10:07:59;;;;;;;;;;;9.70;99.90;;;;;;5116008;27;19914;-73
2022/04/20 10:10:31;;;;;;;;;;;9.60;99.90;;;;;;5115699;27;19968;-73
2022/04/20 10:12:57;;;;;;;;;;;9.60;99.90;;;;;;5134586;27;19962;-74
2022/04/20 10:18:15;;;;;;;;;;;9.70;99.90;;;;;;5134892;27;19918;-74
2022/04/20 10:20:42;;;;;;;;;;;9.80;99.90;;;;;;5134792;27;19964;-73
2022/04/20 10:23:10;;;;;;;;;;;9.80;99.90;;;;;;5134254;27;19908;-73
2022/04/20 10:25:35;;;;;;;;;;;9.60;99.90;;;;;;5134497;27;19973;-74
2022/04/20 10:28:03;;;;;;;;;;;9.50;99.90;;;;;;5134154;27;19953;-74
2022/04/20 10:30:38;;;;;;;;;;;9.50;99.90;;;;;;5134516;27;19916;-74
2022/04/20 10:33:13;;;;;;;;;;;9.60;99.90;;;;;;5134253;27;20014;-74
2022/04/20 10:35:54;;;;;;;;;;;9.60;99.90;;;;;;5134346;27;19927;-73
2022/04/20 10:38:20;;;;;;;;;;;9.70;99.90;;;;;;5134054;27;19908;-73
2022/04/20 10:41:18;;;;;;;;;;;9.70;99.90;;;;;;5134321;27;19923;-73
2022/04/20 10:43:43;;;;;;;;;;;9.70;99.90;;;;;;5095231;27;19946;-73
2022/04/20 10:46:14;;;;;;;;;;;9.70;99.90;;;;;;5115722;27;19969;-73
2022/04/20 10:49:01;;;;;;;;;;;9.70;99.90;;;;;;5133878;27;19914;-72
2022/04/20 10:51:30;;;;;;;;;;;9.60;99.90;;;;;;5115467;27;19922;-73
2022/04/20 10:54:15;;;;;;;;;;;9.60;99.90;;;;;;5133828;27;20331;-73
2022/04/20 10:56:47;;;;;;;;;;;9.60;99.90;;;;;;5114947;27;19912;-73
2022/04/20 10:59:13;;;;;;;;;;;9.10;99.90;;;;;;5133795;27;20279;-73
2022/04/20 11:01:57;;;;;;;;;;;9.70;99.90;;;;;;5114947;27;19911;-73
2022/04/20 11:04:32;;;;;;;;;;;9.60;99.90;;;;;;5115068;27;19937;-73
2022/04/20 11:06:58;;;;;;;;;;;9.70;99.90;;;;;;5133551;27;19908;-73
2022/04/20 11:09:42;;;;;;;;;;;9.80;99.90;;;;;;5133533;27;20427;-73
2022/04/20 11:20:58;;;;;;;;;;;9.80;99.90;;;;;;5133746;27;20430;-73
2022/04/20 11:23:43;;;;;;;;;;;9.80;99.90;;;;;;5133264;27;20332;-74
2022/04/20 11:26:12;;;;;;;;;;;9.80;99.90;;;;;;5114562;27;19919;-73
2022/04/20 11:28:41;;;;;;;;;;;9.60;99.90;;;;;;5133094;27;20412;-74
2022/04/20 11:31:06;;;;;;;;;;;9.80;99.90;;;;;;5133461;27;19920;-73
2022/04/20 11:33:33;;;;;;;;;;;9.80;99.90;;;;;;5133300;27;19914;-73
2022/04/20 11:35:58;;;;;;;;;;;9.90;99.90;;;;;;5132857;27;20550;-73
2022/04/20 11:38:42;;;;;;;;;;;9.80;99.90;;;;;;5114485;27;20034;-73
2022/04/20 11:41:09;;;;;;;;;;;9.80;99.90;;;;;;5114687;27;19974;-72
2022/04/20 11:43:36;;;;;;;;;;;9.80;99.90;;;;;;5132877;27;20363;-73
2022/04/20 11:46:02;;;;;;;;;;;9.90;99.90;;;;;;5114406;27;20367;-73
2022/04/20 11:48:28;;;;;;;;;;;10.10;99.90;;;;;;5132781;27;20386;-73
2022/04/20 11:50:57;;;;;;;;;;;10.20;99.90;;;;;;5133264;27;19920;-73
2022/04/20 11:53:33;;;;;;;;;;;10.30;99.90;;;;;;5114199;27;19999;-73
2022/04/20 11:56:00;;;;;;;;;;;10.40;99.90;;;;;;5132846;27;20336;-73
2022/04/20 11:58:26;;;;;;;;;;;10.60;99.90;;;;;;5132543;27;19918;-73
2022/04/20 12:01:02;;;;;;;;;;;10.70;99.90;;;;;;5132996;27;20291;-73
2022/04/20 12:03:30;;;;;;;;;;;10.90;99.90;;;;;;5113918;27;19918;-73
2022/04/20 12:06:00;;;;;;;;;;;11.10;99.90;;;;;;5114254;28;19911;-73
2022/04/20 12:08:26;;;;;;;;;;;11.20;99.90;;;;;;5114003;28;19996;-73
2022/04/20 12:10:52;;;;;;;;;;;11.10;99.90;;;;;;5113558;27;20397;-73
2022/04/20 12:13:25;;;;;;;;;;;11.10;99.90;;;;;;5113995;27;19950;-72
2022/04/20 12:15:58;;;;;;;;;;;11.00;99.90;;;;;;5132835;27;19930;-72
2022/04/20 12:18:24;;;;;;;;;;;11.00;99.90;;;;;;5132402;27;20409;-73
2022/04/20 12:20:49;;;;;;;;;;;11.00;99.90;;;;;;5114592;28;20007;-74
2022/04/20 12:23:16;;;;;;;;;;;10.90;99.90;;;;;;5132290;27;19907;-73
2022/04/20 12:25:49;;;;;;;;;;;10.90;99.90;;;;;;5132768;28;19915;-73
2022/04/20 12:30:59;;;;;;;;;;;11.10;99.90;;;;;;5132868;28;20377;-73
2022/04/20 12:33:25;;;;;;;;;;;11.10;99.90;;;;;;5132031;28;19911;-73
2022/04/20 12:36:06;;;;;;;;;;;11.20;99.90;;;;;;5132507;28;20029;-73
2022/04/20 12:38:42;;;;;;;;;;;11.20;99.90;;;;;;5113718;28;19911;-73
2022/04/20 12:41:29;;;;;;;;;;;11.10;99.90;;;;;;5113912;28;19927;-73
2022/04/20 12:43:54;;;;;;;;;;;10.90;99.90;;;;;;5131846;28;19946;-73
2022/04/20 12:46:20;;;;;;;;;;;10.70;99.90;;;;;;5132161;28;19907;-74
2022/04/20 12:48:47;;;;;;;;;;;10.60;99.90;;;;;;5132014;28;19914;-73
2022/04/20 12:51:22;;;;;;;;;;;10.50;99.90;;;;;;5113775;28;19941;-73
2022/04/20 12:53:48;;;;;;;;;;;10.50;99.90;;;;;;5113529;28;19915;-73
2022/04/20 13:04:26;;;;;;;;;;;10.40;99.90;;;;;;5132346;28;20287;-73
2022/04/20 13:06:52;;;;;;;;;;;10.40;99.90;;;;;;5131872;28;19908;-73
2022/04/20 13:09:18;;;;;;;;;;;10.40;99.90;;;;;;5131704;28;19987;-73
2022/04/20 13:11:43;;;;;;;;;;;10.40;99.90;;;;;;5113477;28;19919;-73
2022/04/20 13:14:09;;;;;;;;;;;10.30;99.90;;;;;;5131783;28;19908;-74
2022/04/20 13:16:34;;;;;;;;;;;10.20;99.90;;;;;;5131758;28;19965;-74
2022/04/20 13:19:00;;;;;;;;;;;10.20;99.90;;;;;;5131688;28;19914;-73
2022/04/20 13:21:26;;;;;;;;;;;10.20;99.90;;;;;;5114149;27;20426;-73
2022/04/20 13:23:54;;;;;;;;;;;10.20;99.90;;;;;;5135580;27;19907;-74
2022/04/20 13:29:04;;;;;;;;;;;10.10;99.90;;;;;;5135775;27;20380;-73
2022/04/20 13:31:30;;;;;;;;;;;10.10;99.90;;;;;;5135505;27;19919;-73
2022/04/20 13:33:56;;;;;;;;;;;10.10;99.90;;;;;;5135356;27;19980;-73
2022/04/20 13:36:21;;;;;;;;;;;10.10;99.90;;;;;;5135303;27;19915;-73
2022/04/20 13:38:47;;;;;;;;;;;10.20;99.90;;;;;;5135261;27;20198;-73
2022/04/20 13:41:12;;;;;;;;;;;10.10;99.90;;;;;;5136158;27;20387;-73
2022/04/20 13:43:38;;;;;;;;;;;10.20;99.90;;;;;;5116768;27;19990;-73
2022/04/20 13:46:04;;;;;;;;;;;10.10;99.90;;;;;;5117128;27;19945;-73
2022/04/20 13:48:30;;;;;;;;;;;10.10;99.90;;;;;;5116598;27;19907;-73
2022/04/20 13:50:55;;;;;;;;;;;10.40;99.90;;;;;;5116886;27;19923;-73
2022/04/20 13:53:21;;;;;;;;;;;9.90;99.90;;;;;;5116550;27;20002;-73
2022/04/20 13:55:47;;;;;;;;;;;9.90;99.90;;;;;;5135354;27;19942;-72
2022/04/20 13:58:12;;;;;;;;;;;9.90;99.90;;;;;;5134999;27;19980;-73
2022/04/20 14:00:40;;;;;;;;;;;9.90;99.90;;;;;;5135386;27;19916;-73
2022/04/20 14:03:06;;;;;;;;;;;10.00;99.90;;;;;;5116501;27;19914;-73
2022/04/20 14:05:31;;;;;;;;;;;9.90;99.90;;;;;;5135307;27;19915;-72
2022/04/20 14:07:57;;;;;;;;;;;9.90;99.90;;;;;;5134952;27;20339;-73
2022/04/20 14:10:22;;;;;;;;;;;9.90;99.90;;;;;;5134789;27;19930;-73
2022/04/20 14:12:48;;;;;;;;;;;9.90;99.90;;;;;;5134743;27;20002;-72
2022/04/20 14:15:16;;;;;;;;;;;10.00;99.90;;;;;;5134860;27;19923;-72
2022/04/20 14:17:43;;;;;;;;;;;9.90;99.90;;;;;;5116217;27;19914;-72
2022/04/20 14:20:09;;;;;;;;;;;9.80;99.90;;;;;;5116226;27;19919;-73
2022/04/20 14:22:35;;;;;;;;;;;9.80;99.90;;;;;;5134550;27;19911;-73
2022/04/20 14:33:13;;;;;;;;;;;9.70;99.90;;;;;;5133857;27;20003;-78
2022/04/20 14:35:38;;;;;;;;;;;9.50;99.90;;;;;;5116387;27;20030;-73
2022/04/20 14:38:04;;;;;;;;;;;9.50;99.90;;;;;;5134555;27;19988;-73
2022/04/20 14:40:29;;;;;;;;;;;9.50;99.90;;;;;;5134661;27;19919;-73
2022/04/20 14:42:55;;;;;;;;;;;9.50;99.90;;;;;;5134216;27;19914;-73
2022/04/20 14:45:23;;;;;;;;;;;9.50;99.90;;;;;;5134445;27;19929;-74
2022/04/20 14:47:52;;;;;;;;;;;9.60;99.90;;;;;;5134152;27;19914;-73
2022/04/20 14:50:18;;;;;;;;;;;9.50;99.90;;;;;;5134196;27;19915;-74
2022/04/20 14:52:45;;;;;;;;;;;9.50;99.90;;;;;;5133942;27;20311;-73
2022/04/20 14:55:11;;;;;;;;;;;9.50;99.90;;;;;;5134037;27;20318;-73
2022/04/20 14:57:36;;;;;;;;;;;9.50;99.90;;;;;;5133825;27;19908;-73
2022/04/20 15:00:03;;;;;;;;;;;9.50;99.90;;;;;;5115306;27;20251;-74
2022/04/20 15:02:28;;;;;;;;;;;9.40;99.90;;;;;;5133688;27;20367;-73
2022/04/20 15:04:54;;;;;;;;;;;9.40;99.90;;;;;;5133782;27;19923;-73
2022/04/20 15:07:19;;;;;;;;;;;9.40;99.90;;;;;;5133728;27;20263;-73
2022/04/20 15:09:45;;;;;;;;;;;9.40;99.90;;;;;;5114825;27;19972;-73
2022/04/20 15:12:11;;;;;;;;;;;9.40;99.90;;;;;;5133537;27;19912;-73
2022/04/20 15:14:36;;;;;;;;;;;9.30;99.90;;;;;;5133579;27;19916;-73
2022/04/20 15:17:02;;;;;;;;;;;9.30;99.90;;;;;;5133506;27;19922;-73
2022/04/20 15:19:27;;;;;;;;;;;9.20;99.90;;;;;;5133589;27;19922;-73
2022/04/20 15:21:53;;;;;;;;;;;9.20;99.90;;;;;;5133463;27;19922;-73
2022/04/20 15:24:18;;;;;;;;;;;9.20;99.90;;;;;;5133609;27;20010;-73